Forum : FASHION B AIR
Date Sujet Auteur Dernier
16/11/17 09:42 Pas de quoi pavoiser !... herschli modeste9 4 1
07/11/17 17:24 Fonds propres 17.79 ME peu de dette ... 75BOURSI carmen67 2 0
27/10/17 10:23 Rex: -1.48 ME modeste9 carmen67 1 0
27/10/17 10:17 Hausse de la marge brute carmen67 carmen67 2 0
24/10/17 21:34 Un second semestre bien orienté MARHUBE herschli 3 2
13/10/17 18:53 Société moribonde, cela me rappelle : carmen67 herschli 1 0
12/10/17 21:18 Vu le volume kenblan carmen67 2 0
12/10/17 11:47 ça va bouger, AGO en fin de mois modeste9 modeste9 0 0
11/10/17 17:40 Dépérissement du cours carmen67 herschli 2 0
21/09/17 09:45 sérieux la bou ffonerie continue M3144165 M3144165 0 0
21/09/17 01:30 Nous y voilà ! herschli herschli 4 0
12/09/17 17:06 c est du n'importe quoi M3144165 M7929183 3 0
01/08/17 13:34 Faillite ? Kebek AAA007 1 0
27/07/17 22:33 Résultats déplorables. carmen67 Kebek 3 0
13/07/17 14:04 -3% avec 15 titres mdr M7929183 flamen84 2 0
11/07/17 16:26 Perspectives MARHUBE MARHUBE 0 2
02/06/17 11:18 L'avenir est sombre carmen67 carmen67 0 0
26/05/17 10:06 Pas d'échange M7870280 M7870280 0 0
22/05/17 15:22 Bizarre le carnet d'ordres de ce jour carmen67 carmen67 0 0
22/05/17 08:41 Chiffre d'affaires 2016-2017 13,08 MEUR carmen67 carmen67 0 0
16/05/17 14:15 FASHION BEL AIR N - obj mm200 flamen84 sawyer25 7 1
09/05/17 16:06 Marseille newer28 newer28 0 0
21/04/17 21:53 Avec les beaux jours, carmen67 carmen67 1 0
19/04/17 16:44 Que se passe t il ici ? HEL_G HEL_G 0 0
13/04/17 11:14 Analyse technique Fashion Bel air marvin25 teezamok 1 0
10/04/17 18:33 la plupart des PP sont partis et ne rev M9596094 M9596094 6 0
09/04/17 01:15 ALMGI dossier a etudier de pres j_cohen j_cohen 0 0
07/04/17 20:05 la hausse n'aura pas tenue longtemps re M9596094 M9596094 13 0
07/04/17 12:57 Bientôt bien rouge..... M9596094 M9596094 0 0
07/04/17 12:56 les SKUD ATP lancés prouvent que ça sor M9596094 M9596094 1 0
07/04/17 12:49 400 000¤ de mouvement pour une M9596094 M9596094 0 0
07/04/17 12:30 Enfin elle bouge rh carllive carllive 7 1
07/04/17 12:25 un seul mot lol M9596094 M9596094 1 0
07/04/17 11:49 pas de robots M4058950 M9596094 2 0
07/04/17 10:43 elle va exploser demain ama AAA007 newer28 8 0
07/04/17 09:21 le piege va se refermer bientot 1C100 quiessz 2 1
06/04/17 16:22 pfff ça recharge dans le co vente AAA007 flamen84 2 0
06/04/17 14:48 Catg Gilooril flamen84 1 0
06/04/17 14:16 Test lebest lebest 0 0
06/04/17 14:03 Pour moi lebest lebest 0 0

Les sujets :

Sujet sans réponse.
Sujet principal faisant l'objet d'au moins une réponse.
Sujet comportant une analyse technique commentée.

Les autres icônes :

BoursoStar Expert
BoursoStar 3 étoiles
BoursoStar 2 étoiles
BoursoStar 1 étoiles
BoursoStar